logo
Search for airport 
image banner adimage banner adimage banner ad
image banner ad

LDZK - Zabok/Gubasevo

Located in Guba, Croatia

ICAO - , IATA -

Data provided by Airmate  

General information

Coordinates: N46°0'46" E15°51'36"
Elevation is 461 feet MSL.
Magnetic variation is 5° East
View others Airports in Zagreb (city)

Operational data

Special qualification required
Current time UTC:
Current local time:
Weather at : LJCE - Cerklje Ob Krki ( 28 km )
METAR: LJCE 300500Z AUTO 00000KT 9000 DZ OVC035/// M00/M01 Q1007
TAF: TAF LJCE 300500Z 3006/3015 VRB02KT 9999 -RA SCT015 BKN040 PROB30 TEMPO 3006/3008 3500 -FZRA BR BKN003 OVC030 BECMG 3006/3008 5000 RA BR
View NOTAMs / SUP AIP / TFR affecting this airport [VIEW]
Communications frequencies: [VIEW]

Runways:

RWY identifierQFULength (ft)Width (ft)SurfaceLDA (ft)
17175°2639101GRAS2621
35355°2639101GRAS2621

Airport contact information

Address: Guba Croatia

Other aviation service providers

Aviation club (not for profit)

Heli Centar Toplice D.O.O.

Heli Centar Toplice D.O.O.

Zagorski Aeroklub

Zagorski Aeroklub

Satellite view of LDZK